createdAt,value
2023-05-21T00:01:42.784Z,15.63
2023-05-21T00:04:09.853Z,15.66
2023-05-21T00:06:37.263Z,15.58
2023-05-21T00:09:05.605Z,15.60
2023-05-21T00:11:33.038Z,15.53
2023-05-21T00:14:00.013Z,15.46
2023-05-21T00:16:27.005Z,15.37
2023-05-21T00:18:54.823Z,15.45
2023-05-21T00:21:26.426Z,15.35
2023-05-21T00:23:57.172Z,15.56
2023-05-21T00:26:27.037Z,15.52
2023-05-21T00:28:57.182Z,15.36
2023-05-21T00:31:24.134Z,15.37
2023-05-21T00:33:51.067Z,15.36
2023-05-21T00:36:18.068Z,15.27
2023-05-21T00:38:46.004Z,15.32
2023-05-21T00:41:13.864Z,15.32
2023-05-21T00:43:41.290Z,15.17
2023-05-21T00:46:12.303Z,15.26
2023-05-21T00:48:39.912Z,15.23
2023-05-21T00:51:07.224Z,15.19
2023-05-21T00:53:36.994Z,15.17
2023-05-21T00:56:04.791Z,15.14
2023-05-21T00:58:33.681Z,15.02
2023-05-21T01:01:04.087Z,15.24
2023-05-21T01:03:31.106Z,15.20
2023-05-21T01:06:00.275Z,15.19
2023-05-21T01:08:29.129Z,15.15
2023-05-21T01:10:57.741Z,15.22
2023-05-21T01:13:25.178Z,15.24
2023-05-21T01:15:53.952Z,15.11
2023-05-21T01:18:22.217Z,14.79
2023-05-21T01:20:49.405Z,14.95
2023-05-21T01:23:20.645Z,15.06
2023-05-21T01:25:48.070Z,14.93
2023-05-21T01:28:15.087Z,14.81
2023-05-21T01:30:44.079Z,14.85
2023-05-21T01:33:36.664Z,14.97
2023-05-21T01:36:16.137Z,14.98
2023-05-21T01:38:49.146Z,14.89
2023-05-21T01:41:18.751Z,14.87
2023-05-21T01:43:47.604Z,14.65
2023-05-21T01:46:20.203Z,14.87
2023-05-21T01:48:48.499Z,14.72
2023-05-21T01:51:16.385Z,14.63
2023-05-21T01:53:43.294Z,14.59
2023-05-21T01:56:11.548Z,14.70
2023-05-21T01:58:38.761Z,14.49
2023-05-21T02:01:05.771Z,14.47
2023-05-21T02:03:32.863Z,14.63
2023-05-21T02:05:59.792Z,14.49
2023-05-21T02:08:27.601Z,14.52
2023-05-21T02:10:55.131Z,14.51
2023-05-21T02:13:25.793Z,14.51
2023-05-21T02:15:55.065Z,14.41
2023-05-21T02:18:23.399Z,14.46
2023-05-21T02:20:50.614Z,14.34
2023-05-21T02:23:17.580Z,14.23
2023-05-21T02:25:44.707Z,14.35
2023-05-21T02:28:12.995Z,14.64
2023-05-21T02:30:39.958Z,14.67
2023-05-21T02:33:09.419Z,14.50
2023-05-21T02:35:36.965Z,14.68
2023-05-21T02:38:04.131Z,14.64
2023-05-21T02:40:31.136Z,14.67
2023-05-21T02:42:58.013Z,14.40
2023-05-21T02:45:25.109Z,14.57
2023-05-21T02:47:52.766Z,14.37
2023-05-21T02:50:20.336Z,14.43
2023-05-21T02:52:56.022Z,14.47
2023-05-21T02:55:23.127Z,14.39
2023-05-21T02:57:50.724Z,14.29
2023-05-21T03:00:17.766Z,14.25
2023-05-21T03:02:45.042Z,14.29
2023-05-21T03:05:12.489Z,14.22
2023-05-21T03:07:39.429Z,14.25
2023-05-21T03:10:06.833Z,14.15
2023-05-21T03:12:33.858Z,14.23
2023-05-21T03:15:01.045Z,14.18
2023-05-21T03:17:28.316Z,14.10
2023-05-21T03:19:55.253Z,14.18
2023-05-21T03:22:22.344Z,14.02
2023-05-21T03:24:49.339Z,14.12
2023-05-21T03:27:17.554Z,14.15
2023-05-21T03:29:46.227Z,14.15
2023-05-21T03:32:14.167Z,14.03
2023-05-21T03:34:42.091Z,13.92
2023-05-21T03:37:09.022Z,13.93
2023-05-21T03:39:36.663Z,13.88
2023-05-21T03:42:03.717Z,14.04
2023-05-21T03:44:45.172Z,14.05
2023-05-21T03:47:36.470Z,14.16
2023-05-21T03:50:06.489Z,13.97
2023-05-21T03:52:33.408Z,14.18
2023-05-21T03:55:01.091Z,14.06
2023-05-21T03:57:28.405Z,14.06
2023-05-21T03:59:56.164Z,13.95
2023-05-21T04:02:23.501Z,14.20
2023-05-21T04:04:51.941Z,14.19
2023-05-21T04:07:22.508Z,14.11
2023-05-21T04:09:49.660Z,14.13
2023-05-21T04:12:18.301Z,14.15
2023-05-21T04:14:45.230Z,14.01
2023-05-21T04:17:13.010Z,14.23
2023-05-21T04:19:40.288Z,14.20
2023-05-21T04:22:07.190Z,14.22
2023-05-21T04:24:34.083Z,14.09
2023-05-21T04:27:10.156Z,14.25
2023-05-21T04:29:37.921Z,14.09
2023-05-21T04:32:07.325Z,14.31
2023-05-21T04:34:34.275Z,14.31
2023-05-21T04:37:02.513Z,14.33
2023-05-21T04:39:31.704Z,14.42
2023-05-21T04:41:58.632Z,14.49
2023-05-21T04:44:26.178Z,14.49
2023-05-21T04:46:55.010Z,14.54
2023-05-21T04:49:22.048Z,14.54
2023-05-21T04:51:49.694Z,14.66
2023-05-21T04:54:16.747Z,14.86
2023-05-21T04:56:44.748Z,14.83
2023-05-21T04:59:11.834Z,15.12
2023-05-21T05:01:38.810Z,15.05
2023-05-21T05:04:06.510Z,15.06
2023-05-21T05:06:33.407Z,15.13
2023-05-21T05:09:00.385Z,15.11
2023-05-21T05:11:27.370Z,15.18
2023-05-21T05:13:54.403Z,15.06
2023-05-21T05:16:25.864Z,15.24
2023-05-21T05:18:56.190Z,15.22
2023-05-21T05:21:24.045Z,15.38
2023-05-21T05:23:51.321Z,15.35
2023-05-21T05:26:23.206Z,15.44
2023-05-21T05:28:50.261Z,15.28
2023-05-21T05:31:18.384Z,15.25
2023-05-21T05:33:45.693Z,15.24
2023-05-21T05:36:12.752Z,15.33
2023-05-21T05:38:40.471Z,15.21
2023-05-21T05:41:07.542Z,15.08
2023-05-21T05:43:34.572Z,15.24
2023-05-21T05:46:01.830Z,14.96
2023-05-21T05:48:28.801Z,15.33
2023-05-21T05:50:57.378Z,15.45
2023-05-21T05:53:26.089Z,15.36
2023-05-21T05:55:53.578Z,15.60
2023-05-21T05:58:20.513Z,15.66
2023-05-21T06:00:57.653Z,15.76
2023-05-21T06:03:28.922Z,15.89
2023-05-21T06:05:57.012Z,15.77
2023-05-21T06:08:24.898Z,15.96
2023-05-21T06:10:52.607Z,15.94
2023-05-21T06:13:19.541Z,15.90
2023-05-21T06:15:46.491Z,15.99
2023-05-21T06:18:14.688Z,16.12
2023-05-21T06:20:42.405Z,16.14
2023-05-21T06:23:09.886Z,16.03
2023-05-21T06:25:38.436Z,16.19
2023-05-21T06:28:05.571Z,16.37
2023-05-21T06:30:33.678Z,16.31
2023-05-21T06:33:01.057Z,16.59
2023-05-21T06:35:28.028Z,16.89
2023-05-21T06:37:55.092Z,16.96
2023-05-21T06:40:22.178Z,17.01
2023-05-21T06:42:51.321Z,16.72
2023-05-21T06:45:37.131Z,17.24
2023-05-21T06:48:18.505Z,17.22
2023-05-21T06:50:47.437Z,17.67
2023-05-21T06:53:16.604Z,17.88
2023-05-21T06:55:45.606Z,17.63
2023-05-21T06:58:22.512Z,17.62
2023-05-21T07:00:49.675Z,17.66
2023-05-21T07:03:17.567Z,17.31
2023-05-21T07:05:44.716Z,17.69
2023-05-21T07:08:12.259Z,17.54
2023-05-21T07:10:39.713Z,17.80
2023-05-21T07:13:07.303Z,17.80
2023-05-21T07:15:34.498Z,18.02
2023-05-21T07:18:02.561Z,17.71
2023-05-21T07:20:30.131Z,18.11
2023-05-21T07:23:01.674Z,17.93
2023-05-21T07:25:28.691Z,18.21
2023-05-21T07:27:55.728Z,17.83
2023-05-21T07:30:22.764Z,18.17
2023-05-21T07:32:49.751Z,18.30
2023-05-21T07:35:16.752Z,18.41
2023-05-21T07:37:43.954Z,18.80
2023-05-21T07:40:11.337Z,19.01
2023-05-21T07:42:38.610Z,19.20
2023-05-21T07:45:07.289Z,19.55
2023-05-21T07:47:39.627Z,19.85
2023-05-21T07:50:06.999Z,19.71
2023-05-21T07:52:34.378Z,20.07
2023-05-21T07:55:02.610Z,20.14
2023-05-21T07:57:33.087Z,20.44
2023-05-21T08:00:03.235Z,20.63
2023-05-21T08:02:31.617Z,20.69
2023-05-21T08:04:59.240Z,21.01
2023-05-21T08:07:26.844Z,20.65
2023-05-21T08:09:55.761Z,20.92
2023-05-21T08:12:23.203Z,21.05
2023-05-21T08:14:50.244Z,21.38
2023-05-21T08:17:17.684Z,21.16
2023-05-21T08:19:44.746Z,21.20
2023-05-21T08:22:11.683Z,21.47
2023-05-21T08:24:41.975Z,21.41
2023-05-21T08:27:08.967Z,21.25
2023-05-21T08:29:35.954Z,21.44
2023-05-21T08:32:13.392Z,21.52
2023-05-21T08:34:40.604Z,21.82
2023-05-21T08:37:24.499Z,22.08
2023-05-21T08:40:01.802Z,21.74
2023-05-21T08:42:42.756Z,22.08
2023-05-21T08:45:14.532Z,22.16
2023-05-21T08:47:44.293Z,22.08
2023-05-21T08:50:16.812Z,22.30
2023-05-21T08:52:43.909Z,22.16
2023-05-21T08:55:11.255Z,22.46
2023-05-21T08:57:44.183Z,22.62
2023-05-21T09:00:14.403Z,22.71
2023-05-21T09:02:44.183Z,22.31
2023-05-21T09:05:12.706Z,22.81
2023-05-21T09:07:46.138Z,22.82
2023-05-21T09:10:37.514Z,22.67
2023-05-21T09:13:05.230Z,22.79
2023-05-21T09:15:32.946Z,23.22
2023-05-21T09:18:00.042Z,22.85
2023-05-21T09:20:49.952Z,22.58
2023-05-21T09:23:20.508Z,22.43
2023-05-21T09:25:49.884Z,22.93
2023-05-21T09:28:25.396Z,23.12
2023-05-21T09:30:54.536Z,23.12
2023-05-21T09:33:26.438Z,23.35
2023-05-21T09:35:53.460Z,23.52
2023-05-21T09:38:22.829Z,23.58
2023-05-21T09:40:49.951Z,23.64
2023-05-21T09:43:18.189Z,24.08
2023-05-21T09:45:56.336Z,23.46
2023-05-21T09:48:36.719Z,23.16
2023-05-21T09:51:18.879Z,23.64
2023-05-21T09:53:54.885Z,23.48
2023-05-21T09:56:24.864Z,23.71
2023-05-21T09:58:57.075Z,23.95
2023-05-21T10:01:24.880Z,23.82
2023-05-21T10:03:56.786Z,24.39
2023-05-21T10:06:28.375Z,24.52
2023-05-21T10:08:57.164Z,24.89
2023-05-21T10:11:27.358Z,25.13
2023-05-21T10:14:07.715Z,25.14
2023-05-21T10:16:36.460Z,25.23
2023-05-21T10:19:05.477Z,24.56
2023-05-21T10:21:33.676Z,24.48
2023-05-21T10:24:02.823Z,23.59
2023-05-21T10:26:30.760Z,23.91
2023-05-21T10:29:00.621Z,23.43
2023-05-21T10:31:30.463Z,23.59
2023-05-21T10:33:58.075Z,23.23
2023-05-21T10:36:28.016Z,23.72
2023-05-21T10:38:57.113Z,23.71
2023-05-21T10:41:26.391Z,23.77
2023-05-21T10:44:22.240Z,24.03
2023-05-21T10:47:13.570Z,24.27
2023-05-21T10:49:57.710Z,24.23
2023-05-21T10:53:21.957Z,24.01
2023-05-21T10:55:58.880Z,23.92
2023-05-21T10:58:48.839Z,24.22
2023-05-21T11:01:19.533Z,23.70
2023-05-21T11:03:48.741Z,24.43
2023-05-21T11:06:26.754Z,23.95
2023-05-21T11:08:55.612Z,24.45
2023-05-21T11:11:45.289Z,24.64
2023-05-21T11:14:39.539Z,24.76
2023-05-21T11:17:09.634Z,25.19
2023-05-21T11:19:54.994Z,25.54
2023-05-21T11:22:27.998Z,25.61
2023-05-21T11:24:56.490Z,24.92
2023-05-21T11:27:42.141Z,25.55
2023-05-21T11:30:10.381Z,26.12
2023-05-21T11:32:58.071Z,26.15
2023-05-21T11:35:25.093Z,25.31
2023-05-21T11:37:54.361Z,25.73
2023-05-21T11:40:30.732Z,25.95
2023-05-21T11:42:57.848Z,25.32
2023-05-21T11:45:31.369Z,25.11
2023-05-21T11:47:58.784Z,25.76
2023-05-21T11:50:26.247Z,25.27
2023-05-21T11:52:53.224Z,26.00
2023-05-21T11:55:25.236Z,25.78
2023-05-21T11:57:55.795Z,25.72
2023-05-21T12:00:23.364Z,26.04
2023-05-21T12:02:55.944Z,25.94
2023-05-21T12:05:24.128Z,25.91
2023-05-21T12:07:51.265Z,26.40
2023-05-21T12:10:21.965Z,26.81
2023-05-21T12:12:55.515Z,26.17
2023-05-21T12:15:24.650Z,26.44
2023-05-21T12:17:53.371Z,26.74
2023-05-21T12:20:20.496Z,26.22
2023-05-21T12:22:49.356Z,26.19
2023-05-21T12:25:20.408Z,26.31
2023-05-21T12:27:49.947Z,25.57
2023-05-21T12:30:17.047Z,25.95
2023-05-21T12:32:44.563Z,26.27
2023-05-21T12:35:21.864Z,25.81
2023-05-21T12:37:50.936Z,25.31
2023-05-21T12:40:18.456Z,25.82
2023-05-21T12:42:45.555Z,26.17
2023-05-21T12:45:12.909Z,25.62
2023-05-21T12:47:39.856Z,26.04
2023-05-21T12:50:14.188Z,26.43
2023-05-21T12:52:44.540Z,26.52
2023-05-21T12:55:13.753Z,26.72
2023-05-21T12:57:40.727Z,26.72
2023-05-21T13:00:08.286Z,27.05
2023-05-21T13:02:42.339Z,27.23
2023-05-21T13:05:11.856Z,27.35
2023-05-21T13:07:40.148Z,27.03
2023-05-21T13:10:07.978Z,26.91
2023-05-21T13:12:35.040Z,26.33
2023-05-21T13:15:04.257Z,27.01
2023-05-21T13:17:31.454Z,26.47
2023-05-21T13:20:09.520Z,26.87
2023-05-21T13:22:42.769Z,26.96
2023-05-21T13:25:21.599Z,27.05
2023-05-21T13:27:50.165Z,26.83
2023-05-21T13:30:17.645Z,27.50
2023-05-21T13:32:45.160Z,26.70
2023-05-21T13:35:12.496Z,26.78
2023-05-21T13:37:40.997Z,27.03
2023-05-21T13:40:15.524Z,26.72
2023-05-21T13:42:45.688Z,27.55
2023-05-21T13:45:14.542Z,27.57
2023-05-21T13:47:42.541Z,27.68
2023-05-21T13:50:10.224Z,27.67
2023-05-21T13:52:38.104Z,27.86
2023-05-21T13:55:06.090Z,26.46
2023-05-21T13:57:33.094Z,26.78
2023-05-21T14:00:01.169Z,26.25
2023-05-21T14:02:28.567Z,26.39
2023-05-21T14:04:55.563Z,26.33
2023-05-21T14:07:22.734Z,26.69
2023-05-21T14:09:49.827Z,25.88
2023-05-21T14:12:17.320Z,26.14
2023-05-21T14:14:44.437Z,26.13
2023-05-21T14:17:11.366Z,25.83
2023-05-21T14:19:38.237Z,25.97
2023-05-21T14:22:05.449Z,25.45
2023-05-21T14:24:32.581Z,25.53
2023-05-21T14:26:59.468Z,25.26
2023-05-21T14:29:26.387Z,25.73
2023-05-21T14:31:53.365Z,25.34
2023-05-21T14:34:20.380Z,25.43
2023-05-21T14:36:47.345Z,25.40
2023-05-21T14:39:14.461Z,25.33
2023-05-21T14:41:41.571Z,24.94
2023-05-21T14:44:08.534Z,24.76
2023-05-21T14:46:36.944Z,25.42
2023-05-21T14:49:04.197Z,25.16
2023-05-21T14:51:31.878Z,25.03
2023-05-21T14:53:59.008Z,24.81
2023-05-21T14:56:27.991Z,24.83
2023-05-21T14:58:55.247Z,24.70
2023-05-21T15:01:22.480Z,24.64
2023-05-21T15:03:49.736Z,24.76
2023-05-21T15:06:16.851Z,25.38
2023-05-21T15:08:43.718Z,25.79
2023-05-21T15:11:10.795Z,25.56
2023-05-21T15:13:38.448Z,25.16
2023-05-21T15:16:06.361Z,25.02
2023-05-21T15:18:33.678Z,25.00
2023-05-21T15:21:00.663Z,24.82
2023-05-21T15:23:27.703Z,24.33
2023-05-21T15:25:54.745Z,24.48
2023-05-21T15:28:23.225Z,24.45
2023-05-21T15:30:50.449Z,24.43
2023-05-21T15:33:17.690Z,24.60
2023-05-21T15:35:45.042Z,24.56
2023-05-21T15:38:12.533Z,24.56
2023-05-21T15:40:42.186Z,24.61
2023-05-21T15:43:09.180Z,24.64
2023-05-21T15:45:36.951Z,24.35
2023-05-21T15:48:04.480Z,24.14
2023-05-21T15:50:31.583Z,24.04
2023-05-21T15:52:58.547Z,23.79
2023-05-21T15:55:25.508Z,23.93
2023-05-21T15:57:52.548Z,23.76
2023-05-21T16:00:19.622Z,23.94
2023-05-21T16:02:46.614Z,23.78
2023-05-21T16:05:13.640Z,23.88
2023-05-21T16:07:40.652Z,23.77
2023-05-21T16:10:09.904Z,23.79
2023-05-21T16:12:36.842Z,23.54
2023-05-21T16:15:04.014Z,23.66
2023-05-21T16:17:31.034Z,23.71
2023-05-21T16:19:57.968Z,23.81
2023-05-21T16:22:25.326Z,23.79
2023-05-21T16:24:52.271Z,23.60
2023-05-21T16:27:19.266Z,23.86
2023-05-21T16:29:46.245Z,23.60
2023-05-21T16:32:14.380Z,23.80
2023-05-21T16:34:41.410Z,23.99
2023-05-21T16:37:10.012Z,24.01
2023-05-21T16:39:37.561Z,23.72
2023-05-21T16:42:04.663Z,23.91
2023-05-21T16:44:32.489Z,24.08
2023-05-21T16:47:00.359Z,23.80
2023-05-21T16:49:28.060Z,23.78
2023-05-21T16:51:55.122Z,23.50
2023-05-21T16:54:22.193Z,23.53
2023-05-21T16:56:49.270Z,23.64
2023-05-21T16:59:16.422Z,23.80
2023-05-21T17:01:43.430Z,23.62
2023-05-21T17:04:11.199Z,23.79
2023-05-21T17:06:38.099Z,23.71
2023-05-21T17:09:05.131Z,23.59
2023-05-21T17:11:32.112Z,23.30
2023-05-21T17:13:59.191Z,23.51
2023-05-21T17:16:26.254Z,23.44
2023-05-21T17:18:53.308Z,23.58
2023-05-21T17:21:20.279Z,23.24
2023-05-21T17:23:47.188Z,23.24
2023-05-21T17:26:17.063Z,23.34
2023-05-21T17:28:44.045Z,23.37
2023-05-21T17:31:11.220Z,23.32
2023-05-21T17:33:39.728Z,23.11
2023-05-21T17:36:06.917Z,23.26
2023-05-21T17:38:35.305Z,23.07
2023-05-21T17:41:02.477Z,23.18
2023-05-21T17:43:32.076Z,23.07
2023-05-21T17:45:59.129Z,23.14
2023-05-21T17:48:26.399Z,23.21
2023-05-21T17:50:53.472Z,22.80
2023-05-21T17:53:20.450Z,22.89
2023-05-21T17:55:47.476Z,22.80
2023-05-21T17:58:16.041Z,22.61
2023-05-21T18:00:43.079Z,22.67
2023-05-21T18:03:10.116Z,22.44
2023-05-21T18:05:37.455Z,22.35
2023-05-21T18:08:06.710Z,22.39
2023-05-21T18:10:33.733Z,22.25
2023-05-21T18:13:00.767Z,22.33
2023-05-21T18:15:27.762Z,22.17
2023-05-21T18:17:54.765Z,22.26
2023-05-21T18:20:21.827Z,22.29
2023-05-21T18:22:48.780Z,22.22
2023-05-21T18:25:15.769Z,22.26
2023-05-21T18:27:42.901Z,21.92
2023-05-21T18:30:10.298Z,22.08
2023-05-21T18:32:40.129Z,21.91
2023-05-21T18:35:11.576Z,22.00
2023-05-21T18:37:41.847Z,22.00
2023-05-21T18:40:09.414Z,21.87
2023-05-21T18:42:36.547Z,21.60
2023-05-21T18:45:27.489Z,21.80
2023-05-21T18:47:54.435Z,21.66
2023-05-21T18:50:21.676Z,21.53
2023-05-21T18:52:48.810Z,21.54
2023-05-21T18:55:15.780Z,21.23
2023-05-21T18:57:42.698Z,21.17
2023-05-21T19:00:10.271Z,21.09
2023-05-21T19:02:37.645Z,21.29
2023-05-21T19:05:05.080Z,20.92
2023-05-21T19:07:32.097Z,21.11
2023-05-21T19:10:03.415Z,20.97
2023-05-21T19:12:31.672Z,20.94
2023-05-21T19:14:58.664Z,20.90
2023-05-21T19:17:25.817Z,20.91
2023-05-21T19:19:56.353Z,20.57
2023-05-21T19:22:27.295Z,20.82
2023-05-21T19:24:55.329Z,20.81
2023-05-21T19:27:22.429Z,20.74
2023-05-21T19:29:49.509Z,20.66
2023-05-21T19:32:16.997Z,20.40
2023-05-21T19:34:43.901Z,20.39
2023-05-21T19:37:10.834Z,20.32
2023-05-21T19:39:39.531Z,20.40
2023-05-21T19:42:27.380Z,20.23
2023-05-21T19:44:56.778Z,20.30
2023-05-21T19:47:24.170Z,20.11
2023-05-21T19:49:53.750Z,19.83
2023-05-21T19:52:20.698Z,19.91
2023-05-21T19:54:47.643Z,19.85
2023-05-21T19:57:14.659Z,19.94
2023-05-21T19:59:41.795Z,19.84
2023-05-21T20:02:13.475Z,19.75
2023-05-21T20:04:40.667Z,19.71
2023-05-21T20:07:07.870Z,19.73
2023-05-21T20:09:37.267Z,19.70
2023-05-21T20:12:04.601Z,19.63
2023-05-21T20:14:33.740Z,19.62
2023-05-21T20:17:01.867Z,19.40
2023-05-21T20:19:29.242Z,19.51
2023-05-21T20:21:56.271Z,19.52
2023-05-21T20:24:23.258Z,19.36
2023-05-21T20:26:50.335Z,19.31
2023-05-21T20:29:17.240Z,19.23
2023-05-21T20:31:44.466Z,19.17
2023-05-21T20:34:12.453Z,18.97
2023-05-21T20:36:40.640Z,19.06
2023-05-21T20:39:09.436Z,18.99
2023-05-21T20:41:37.910Z,18.83
2023-05-21T20:44:05.695Z,18.86
2023-05-21T20:46:34.390Z,19.04
2023-05-21T20:49:01.413Z,18.98
2023-05-21T20:51:28.462Z,18.58
2023-05-21T20:53:55.618Z,18.93
2023-05-21T20:56:39.977Z,19.03
2023-05-21T20:59:10.868Z,19.13
2023-05-21T21:01:39.442Z,19.06
2023-05-21T21:04:06.714Z,18.88
2023-05-21T21:06:34.105Z,19.05
2023-05-21T21:09:01.059Z,18.83
2023-05-21T21:11:28.021Z,18.89
2023-05-21T21:13:54.931Z,18.90
2023-05-21T21:16:21.917Z,18.68
2023-05-21T21:18:48.940Z,18.77
2023-05-21T21:21:15.992Z,18.77
2023-05-21T21:23:42.931Z,18.73
2023-05-21T21:26:09.965Z,18.74
2023-05-21T21:28:36.901Z,18.69
2023-05-21T21:31:03.901Z,18.56
2023-05-21T21:33:30.818Z,18.70
2023-05-21T21:35:57.808Z,18.52
2023-05-21T21:38:25.292Z,18.64
2023-05-21T21:40:52.268Z,18.49
2023-05-21T21:43:19.238Z,18.46
2023-05-21T21:45:46.252Z,18.39
2023-05-21T21:48:13.244Z,18.52
2023-05-21T21:50:40.335Z,18.24
2023-05-21T21:53:07.425Z,18.26
2023-05-21T21:55:34.360Z,18.11
2023-05-21T21:58:01.378Z,18.00
2023-05-21T22:00:28.317Z,18.20
2023-05-21T22:02:55.272Z,18.18
2023-05-21T22:05:22.277Z,18.17
2023-05-21T22:07:49.208Z,18.17
2023-05-21T22:10:16.775Z,18.00
2023-05-21T22:12:44.658Z,17.71
2023-05-21T22:15:18.787Z,17.99
2023-05-21T22:17:47.268Z,17.86
2023-05-21T22:20:15.086Z,17.70
2023-05-21T22:22:42.063Z,17.88
2023-05-21T22:25:09.079Z,17.66
2023-05-21T22:27:36.648Z,17.76
2023-05-21T22:30:05.085Z,17.72
2023-05-21T22:32:32.003Z,17.57
2023-05-21T22:34:58.905Z,17.75
2023-05-21T22:37:26.501Z,17.64
2023-05-21T22:39:53.436Z,17.69
2023-05-21T22:42:20.631Z,17.51
2023-05-21T22:44:47.499Z,17.57
2023-05-21T22:47:14.917Z,17.33
2023-05-21T22:49:42.258Z,17.44
2023-05-21T22:52:12.425Z,17.36
2023-05-21T22:54:39.348Z,17.10
2023-05-21T22:57:09.415Z,17.17
2023-05-21T22:59:36.507Z,17.11
2023-05-21T23:02:03.979Z,17.01
2023-05-21T23:04:43.107Z,17.18
2023-05-21T23:07:11.633Z,17.13
2023-05-21T23:09:38.800Z,17.10
2023-05-21T23:12:06.297Z,16.92
2023-05-21T23:14:33.570Z,17.06
2023-05-21T23:17:02.392Z,17.06
2023-05-21T23:19:33.097Z,17.10
2023-05-21T23:22:00.705Z,16.91
2023-05-21T23:24:29.717Z,17.01
2023-05-21T23:27:02.096Z,16.88
2023-05-21T23:29:30.265Z,16.94
2023-05-21T23:31:57.457Z,17.02
2023-05-21T23:34:25.065Z,16.77
2023-05-21T23:36:52.368Z,16.87
2023-05-21T23:39:19.341Z,16.68
2023-05-21T23:41:46.415Z,16.70
2023-05-21T23:44:13.294Z,16.56
2023-05-21T23:46:40.165Z,16.47
2023-05-21T23:49:07.083Z,16.49
2023-05-21T23:51:34.070Z,16.33
2023-05-21T23:54:01.291Z,16.34
2023-05-21T23:56:28.162Z,16.27
2023-05-21T23:58:55.011Z,16.45
